Time;durP1;ratioP1;P1;durP2;ratioP2;P2;SDS_P1;SDS_P2;PMS_P1;PMS_P2;Temp;Humidity;BMP_temperature;BMP_pressure;BME280_temperature;BME280_humidity;BME280_pressure;Samples;Min_cycle;Max_cycle;Signal;HPM_P1;HPM_P2
2021/11/05 00:01:43;;;;;;;;;;;7.70;30.30;;;;;;4372784;32;20367;-39
2021/11/05 00:04:10;;;;;;;;;;;7.70;30.40;;;;;;4372749;32;20075;-38
2021/11/05 00:06:36;;;;;;;;;;;7.70;31.10;;;;;;4373199;32;20029;-38
2021/11/05 00:09:03;;;;;;;;;;;7.70;30.80;;;;;;4372952;32;19977;-38
2021/11/05 00:11:29;;;;;;;;;;;7.70;30.90;;;;;;4372868;32;20378;-39
2021/11/05 00:13:55;;;;;;;;;;;7.70;31.00;;;;;;4373303;32;20024;-38
2021/11/05 00:16:21;;;;;;;;;;;7.70;31.10;;;;;;4373000;32;19981;-38
2021/11/05 00:18:48;;;;;;;;;;;7.70;31.10;;;;;;4373188;32;20118;-38
2021/11/05 00:21:14;;;;;;;;;;;7.70;31.10;;;;;;4359327;32;19969;-38
2021/11/05 00:23:40;;;;;;;;;;;7.70;31.10;;;;;;4373057;32;19974;-38
2021/11/05 00:26:06;;;;;;;;;;;7.70;31.30;;;;;;4372903;32;20443;-38
2021/11/05 00:28:32;;;;;;;;;;;7.70;31.10;;;;;;4371136;32;19974;-39
2021/11/05 00:30:58;;;;;;;;;;;7.60;30.90;;;;;;4373313;32;19962;-39
2021/11/05 00:33:25;;;;;;;;;;;7.60;31.30;;;;;;4373430;32;20457;-39
2021/11/05 00:35:51;;;;;;;;;;;7.60;31.10;;;;;;4373291;32;19954;-39
2021/11/05 00:38:17;;;;;;;;;;;7.60;31.00;;;;;;4373114;32;19989;-38
2021/11/05 00:40:43;;;;;;;;;;;7.60;31.20;;;;;;4372885;32;20006;-38
2021/11/05 00:43:10;;;;;;;;;;;7.60;31.00;;;;;;4373231;32;19986;-39
2021/11/05 00:45:36;;;;;;;;;;;7.60;30.90;;;;;;4372725;32;20373;-38
2021/11/05 00:48:02;;;;;;;;;;;7.60;31.00;;;;;;4372637;32;19966;-37
2021/11/05 00:50:28;;;;;;;;;;;7.60;30.90;;;;;;4373343;32;20421;-40
2021/11/05 00:52:55;;;;;;;;;;;7.70;31.00;;;;;;4375440;32;20389;-39
2021/11/05 00:55:21;;;;;;;;;;;7.70;30.90;;;;;;4375118;32;20012;-39
2021/11/05 00:57:47;;;;;;;;;;;7.70;31.20;;;;;;4375300;32;20382;-39
2021/11/05 01:00:17;;;;;;;;;;;7.70;31.00;;;;;;4375745;32;20112;-39
2021/11/05 01:02:44;;;;;;;;;;;7.60;30.80;;;;;;4375514;32;19974;-38
2021/11/05 01:05:12;;;;;;;;;;;7.70;30.50;;;;;;4375126;32;19971;-38
2021/11/05 01:07:38;;;;;;;;;;;7.60;30.40;;;;;;4375185;32;19968;-38
2021/11/05 01:10:05;;;;;;;;;;;7.60;30.60;;;;;;4375372;32;20045;-39
2021/11/05 01:12:31;;;;;;;;;;;7.60;30.80;;;;;;4375320;32;19970;-38
2021/11/05 01:14:57;;;;;;;;;;;7.60;30.80;;;;;;4375072;32;20406;-38
2021/11/05 01:17:23;;;;;;;;;;;7.60;30.50;;;;;;4374632;32;20375;-38
2021/11/05 01:19:49;;;;;;;;;;;7.50;31.00;;;;;;4374922;32;20454;-38
2021/11/05 01:22:15;;;;;;;;;;;7.50;30.30;;;;;;4375645;32;19962;-38
2021/11/05 01:24:42;;;;;;;;;;;7.50;30.60;;;;;;4389717;32;20472;-37
2021/11/05 01:27:09;;;;;;;;;;;7.40;30.80;;;;;;4390093;32;20489;-39
2021/11/05 01:29:35;;;;;;;;;;;7.40;30.70;;;;;;4390215;32;19978;-38
2021/11/05 01:32:02;;;;;;;;;;;7.40;30.60;;;;;;4390156;32;19961;-38
2021/11/05 01:34:28;;;;;;;;;;;7.40;30.10;;;;;;4389805;32;19973;-39
2021/11/05 01:36:54;;;;;;;;;;;7.40;30.30;;;;;;4389725;32;20421;-39
2021/11/05 01:39:20;;;;;;;;;;;7.40;30.60;;;;;;4389896;32;19981;-39
2021/11/05 01:41:47;;;;;;;;;;;7.30;30.70;;;;;;4389881;32;19985;-39
2021/11/05 01:44:13;;;;;;;;;;;7.30;30.50;;;;;;4389969;32;19966;-38
2021/11/05 01:46:42;;;;;;;;;;;7.30;30.90;;;;;;4376797;32;19997;-37
2021/11/05 01:49:09;;;;;;;;;;;7.30;31.10;;;;;;4385730;32;19966;-38
2021/11/05 01:51:36;;;;;;;;;;;7.30;31.10;;;;;;4374649;32;19996;-37
2021/11/05 01:54:08;;;;;;;;;;;7.30;31.10;;;;;;4374782;32;20034;-38
2021/11/05 01:56:38;;;;;;;;;;;7.30;32.30;;;;;;4374238;32;20465;-36
2021/11/05 01:59:04;;;;;;;;;;;7.30;31.60;;;;;;4374681;32;19961;-36
2021/11/05 02:01:31;;;;;;;;;;;7.20;31.50;;;;;;4374545;32;20054;-39
2021/11/05 02:03:57;;;;;;;;;;;7.20;31.40;;;;;;4374272;32;19969;-38
2021/11/05 02:06:24;;;;;;;;;;;7.20;31.50;;;;;;4374465;32;19976;-39
2021/11/05 02:08:51;;;;;;;;;;;7.20;31.20;;;;;;4374278;32;20050;-38
2021/11/05 02:11:19;;;;;;;;;;;7.20;31.30;;;;;;4374297;32;19978;-38
2021/11/05 02:13:46;;;;;;;;;;;7.10;31.60;;;;;;4374274;32;19966;-39
2021/11/05 02:16:12;;;;;;;;;;;7.10;31.70;;;;;;4374250;32;20036;-38
2021/11/05 02:18:42;;;;;;;;;;;7.10;31.80;;;;;;4374610;32;20159;-36
2021/11/05 02:21:11;;;;;;;;;;;7.10;32.00;;;;;;4374391;32;19966;-37
2021/11/05 02:23:37;;;;;;;;;;;7.10;32.30;;;;;;4374252;32;19958;-38
2021/11/05 02:26:03;;;;;;;;;;;7.10;32.20;;;;;;4374532;32;19972;-38
2021/11/05 02:28:38;;;;;;;;;;;7.00;32.30;;;;;;4373989;32;19965;-37
2021/11/05 02:31:05;;;;;;;;;;;7.10;32.70;;;;;;4374379;32;19977;-38
2021/11/05 02:33:31;;;;;;;;;;;7.00;32.80;;;;;;4373969;32;20041;-40
2021/11/05 02:35:57;;;;;;;;;;;7.00;32.80;;;;;;4373908;32;20062;-38
2021/11/05 02:38:24;;;;;;;;;;;7.00;32.70;;;;;;4374198;32;19969;-37
2021/11/05 02:40:52;;;;;;;;;;;7.00;32.60;;;;;;4373878;32;19974;-38
2021/11/05 02:43:18;;;;;;;;;;;7.00;33.10;;;;;;4359802;32;19970;-38
2021/11/05 02:45:49;;;;;;;;;;;7.00;33.00;;;;;;4373449;32;20386;-38
2021/11/05 02:48:15;;;;;;;;;;;7.00;33.30;;;;;;4373415;32;19973;-38
2021/11/05 02:50:41;;;;;;;;;;;7.00;33.50;;;;;;4373795;32;19974;-37
2021/11/05 02:53:08;;;;;;;;;;;7.00;33.20;;;;;;4373331;32;19969;-37
2021/11/05 02:55:34;;;;;;;;;;;7.00;33.10;;;;;;4373570;32;19985;-38
2021/11/05 02:58:00;;;;;;;;;;;7.00;33.50;;;;;;4359888;32;20440;-38
2021/11/05 03:00:26;;;;;;;;;;;7.00;33.70;;;;;;4374010;32;19958;-38
2021/11/05 03:02:53;;;;;;;;;;;7.00;33.70;;;;;;4373941;32;19966;-39
2021/11/05 03:05:19;;;;;;;;;;;7.00;33.70;;;;;;4373229;32;20002;-38
2021/11/05 03:07:45;;;;;;;;;;;7.00;33.60;;;;;;4373935;32;20420;-38
2021/11/05 03:10:13;;;;;;;;;;;7.00;33.60;;;;;;4373730;32;20067;-39
2021/11/05 03:12:41;;;;;;;;;;;7.00;33.90;;;;;;4373215;32;19962;-37
2021/11/05 03:15:08;;;;;;;;;;;7.00;33.60;;;;;;4371944;32;20097;-38
2021/11/05 03:17:34;;;;;;;;;;;6.90;33.20;;;;;;4372099;32;19962;-39
2021/11/05 03:20:00;;;;;;;;;;;6.90;33.50;;;;;;4373643;32;20080;-38
2021/11/05 03:22:27;;;;;;;;;;;6.90;33.60;;;;;;4374154;32;20001;-38
2021/11/05 03:24:53;;;;;;;;;;;6.90;33.60;;;;;;4388056;32;19966;-37
2021/11/05 03:27:19;;;;;;;;;;;6.90;33.70;;;;;;4388716;32;19962;-39
2021/11/05 03:29:45;;;;;;;;;;;6.90;34.00;;;;;;4388172;32;20468;-40
2021/11/05 03:32:12;;;;;;;;;;;6.90;34.30;;;;;;4388094;32;19969;-38
2021/11/05 03:34:38;;;;;;;;;;;6.80;34.70;;;;;;4389139;32;19958;-38
2021/11/05 03:37:05;;;;;;;;;;;6.80;34.00;;;;;;4388338;32;19969;-38
2021/11/05 03:39:31;;;;;;;;;;;6.80;34.10;;;;;;4388042;32;20011;-38
2021/11/05 03:41:58;;;;;;;;;;;6.80;34.80;;;;;;4388160;32;19996;-38
2021/11/05 03:44:24;;;;;;;;;;;6.80;34.00;;;;;;4388288;32;20412;-39
2021/11/05 03:46:50;;;;;;;;;;;6.80;34.20;;;;;;4374704;32;20553;-38
2021/11/05 03:49:17;;;;;;;;;;;6.80;34.40;;;;;;4373147;32;19970;-38
2021/11/05 03:51:43;;;;;;;;;;;6.80;34.40;;;;;;4373371;32;19963;-38
2021/11/05 03:54:09;;;;;;;;;;;6.80;34.20;;;;;;4373284;32;20039;-38
2021/11/05 03:56:36;;;;;;;;;;;6.80;33.90;;;;;;4373387;32;19955;-38
2021/11/05 03:59:02;;;;;;;;;;;6.80;33.40;;;;;;4373001;32;19969;-38
2021/11/05 04:01:28;;;;;;;;;;;6.70;33.30;;;;;;4372865;32;20355;-39
2021/11/05 04:03:55;;;;;;;;;;;6.70;33.50;;;;;;4373091;32;19982;-38
2021/11/05 04:06:23;;;;;;;;;;;6.70;33.80;;;;;;4373034;32;19985;-38
2021/11/05 04:08:49;;;;;;;;;;;6.60;33.90;;;;;;4373034;32;20410;-38
2021/11/05 04:11:18;;;;;;;;;;;6.70;34.10;;;;;;4373399;32;19977;-39
2021/11/05 04:13:45;;;;;;;;;;;6.70;33.90;;;;;;4373048;32;20038;-38
2021/11/05 04:16:12;;;;;;;;;;;6.70;34.10;;;;;;4372785;32;19965;-40
2021/11/05 04:18:38;;;;;;;;;;;6.60;34.20;;;;;;4347250;32;20487;-39
2021/11/05 04:21:04;;;;;;;;;;;6.70;33.90;;;;;;4372763;32;19957;-39
2021/11/05 04:23:31;;;;;;;;;;;6.70;33.70;;;;;;4372680;32;19970;-40
2021/11/05 04:25:57;;;;;;;;;;;6.70;33.70;;;;;;4375038;32;19966;-40
2021/11/05 04:28:23;;;;;;;;;;;6.70;33.80;;;;;;4375815;32;19974;-39
2021/11/05 04:30:50;;;;;;;;;;;6.70;33.70;;;;;;4375586;32;20463;-39
2021/11/05 04:33:16;;;;;;;;;;;6.70;33.50;;;;;;4375606;32;19966;-39
2021/11/05 04:35:42;;;;;;;;;;;6.70;33.60;;;;;;4376142;32;20428;-39
2021/11/05 04:38:08;;;;;;;;;;;6.70;33.70;;;;;;4375570;32;20042;-39
2021/11/05 04:40:35;;;;;;;;;;;6.70;33.70;;;;;;4375595;32;20052;-39
2021/11/05 04:43:01;;;;;;;;;;;6.80;33.60;;;;;;4375715;32;19988;-39
2021/11/05 04:45:27;;;;;;;;;;;6.70;33.30;;;;;;4375728;32;20086;-39
2021/11/05 04:47:53;;;;;;;;;;;6.70;33.20;;;;;;4375466;32;19962;-40
2021/11/05 04:50:20;;;;;;;;;;;6.70;33.40;;;;;;4375302;32;20002;-40
2021/11/05 04:52:49;;;;;;;;;;;6.70;33.50;;;;;;4375875;32;20017;-40
2021/11/05 04:55:17;;;;;;;;;;;6.70;33.60;;;;;;4375227;32;20359;-38
2021/11/05 04:57:44;;;;;;;;;;;6.70;33.70;;;;;;4375413;32;20378;-40
2021/11/05 05:00:10;;;;;;;;;;;6.70;33.70;;;;;;4374140;32;19978;-39
2021/11/05 05:02:37;;;;;;;;;;;6.70;33.30;;;;;;4374004;32;19964;-41
2021/11/05 05:05:04;;;;;;;;;;;6.70;33.10;;;;;;4375467;32;19965;-39
2021/11/05 05:07:31;;;;;;;;;;;6.70;33.40;;;;;;4375316;32;19962;-39
2021/11/05 05:09:57;;;;;;;;;;;6.70;33.50;;;;;;4375363;32;20375;-39
2021/11/05 05:12:23;;;;;;;;;;;6.70;33.50;;;;;;4375135;32;19961;-40
2021/11/05 05:14:50;;;;;;;;;;;6.70;34.00;;;;;;4375407;32;19968;-40
2021/11/05 05:17:16;;;;;;;;;;;6.80;34.10;;;;;;4375187;32;19970;-39
2021/11/05 05:19:43;;;;;;;;;;;6.80;33.70;;;;;;4374965;32;19988;-39
2021/11/05 05:22:09;;;;;;;;;;;6.80;33.90;;;;;;4375187;32;19988;-39
2021/11/05 05:24:36;;;;;;;;;;;6.90;34.00;;;;;;4388341;32;19962;-39
2021/11/05 05:27:02;;;;;;;;;;;6.90;34.00;;;;;;4390306;32;20070;-39
2021/11/05 05:29:29;;;;;;;;;;;7.00;34.60;;;;;;4389893;32;20403;-39
2021/11/05 05:31:55;;;;;;;;;;;7.00;33.80;;;;;;4390246;32;19977;-39
2021/11/05 05:34:21;;;;;;;;;;;7.00;33.70;;;;;;4390015;32;19965;-39
2021/11/05 05:36:47;;;;;;;;;;;7.10;33.90;;;;;;4389509;32;19973;-39
2021/11/05 05:39:14;;;;;;;;;;;7.10;34.10;;;;;;4390198;32;20037;-42
2021/11/05 05:41:40;;;;;;;;;;;7.20;34.30;;;;;;4375937;32;20052;-41
2021/11/05 05:44:06;;;;;;;;;;;7.20;34.40;;;;;;4389892;32;19967;-40
2021/11/05 05:46:33;;;;;;;;;;;7.30;34.80;;;;;;4377799;32;19962;-40
2021/11/05 05:48:59;;;;;;;;;;;7.30;34.10;;;;;;4374419;32;19982;-39
2021/11/05 05:51:25;;;;;;;;;;;7.30;33.90;;;;;;4374659;32;19985;-39
2021/11/05 05:53:52;;;;;;;;;;;7.30;33.90;;;;;;4374840;32;19982;-40
2021/11/05 05:56:18;;;;;;;;;;;7.40;34.10;;;;;;4374820;32;19965;-37
2021/11/05 05:58:44;;;;;;;;;;;7.40;34.10;;;;;;4374286;32;20055;-38
2021/11/05 06:01:10;;;;;;;;;;;7.40;33.90;;;;;;4374696;32;19977;-39
2021/11/05 06:03:37;;;;;;;;;;;7.40;33.80;;;;;;4374615;32;19963;-39
2021/11/05 06:06:03;;;;;;;;;;;7.30;33.70;;;;;;4374176;32;20041;-39
2021/11/05 06:08:29;;;;;;;;;;;7.40;33.90;;;;;;4374712;32;20006;-39
2021/11/05 06:10:56;;;;;;;;;;;7.40;33.50;;;;;;4374497;32;19973;-39
2021/11/05 06:13:23;;;;;;;;;;;7.40;33.50;;;;;;4374672;32;20398;-38
2021/11/05 06:15:49;;;;;;;;;;;7.30;33.30;;;;;;4374107;32;20450;-37
2021/11/05 06:18:15;;;;;;;;;;;7.30;33.70;;;;;;4374434;32;20034;-40
2021/11/05 06:20:41;;;;;;;;;;;7.30;33.70;;;;;;4373979;32;19982;-39
2021/11/05 06:23:08;;;;;;;;;;;7.30;33.90;;;;;;4373647;32;19962;-38
2021/11/05 06:25:34;;;;;;;;;;;7.30;33.90;;;;;;4373859;32;19962;-40
2021/11/05 06:28:00;;;;;;;;;;;7.30;33.70;;;;;;4359974;32;19977;-39
2021/11/05 06:30:26;;;;;;;;;;;7.30;34.00;;;;;;4373737;32;19973;-38
2021/11/05 06:32:53;;;;;;;;;;;7.30;34.10;;;;;;4374128;32;20354;-39
2021/11/05 06:35:19;;;;;;;;;;;7.30;34.10;;;;;;4360114;32;20432;-39
2021/11/05 06:37:45;;;;;;;;;;;7.30;34.20;;;;;;4374022;32;20058;-39
2021/11/05 06:40:13;;;;;;;;;;;7.30;34.10;;;;;;4374051;32;19984;-38
2021/11/05 06:42:40;;;;;;;;;;;7.30;34.10;;;;;;4373875;32;20048;-39
2021/11/05 06:45:07;;;;;;;;;;;7.30;34.30;;;;;;4373560;32;19958;-39
2021/11/05 06:47:34;;;;;;;;;;;7.30;34.10;;;;;;4373635;32;19958;-40
2021/11/05 06:50:00;;;;;;;;;;;7.30;34.40;;;;;;4373370;32;19962;-40
2021/11/05 06:52:26;;;;;;;;;;;7.30;34.60;;;;;;4373906;32;20046;-40
2021/11/05 06:54:53;;;;;;;;;;;7.30;34.30;;;;;;4373949;32;20057;-38
2021/11/05 06:57:19;;;;;;;;;;;7.30;34.20;;;;;;4373814;32;20001;-39
2021/11/05 06:59:45;;;;;;;;;;;7.30;34.40;;;;;;4373735;32;19953;-40
2021/11/05 07:02:11;;;;;;;;;;;7.30;34.60;;;;;;4373385;32;19998;-39
2021/11/05 07:04:37;;;;;;;;;;;7.30;34.70;;;;;;4373288;32;20078;-39
2021/11/05 07:07:03;;;;;;;;;;;7.30;34.40;;;;;;4373690;32;20427;-40
2021/11/05 07:09:30;;;;;;;;;;;7.30;34.70;;;;;;4373838;32;19981;-40
2021/11/05 07:11:56;;;;;;;;;;;7.30;34.90;;;;;;4373720;32;19985;-37
2021/11/05 07:14:22;;;;;;;;;;;7.30;35.90;;;;;;4373500;32;20572;-38
2021/11/05 07:16:49;;;;;;;;;;;7.30;37.00;;;;;;4373915;32;19974;-40
2021/11/05 07:19:15;;;;;;;;;;;7.20;37.00;;;;;;4373534;32;19961;-40
2021/11/05 07:21:41;;;;;;;;;;;7.20;36.90;;;;;;4373119;32;20465;-38
2021/11/05 07:24:09;;;;;;;;;;;7.20;36.90;;;;;;4384147;32;19989;-40
2021/11/05 07:26:48;;;;;;;;;;;7.10;36.90;;;;;;4388906;32;19973;-38
2021/11/05 07:29:19;;;;;;;;;;;7.10;36.70;;;;;;4388777;32;19973;-39
2021/11/05 07:31:45;;;;;;;;;;;7.10;36.60;;;;;;4374976;32;20401;-38
2021/11/05 07:34:11;;;;;;;;;;;7.00;36.40;;;;;;4388594;32;19958;-40
2021/11/05 07:36:37;;;;;;;;;;;7.10;36.50;;;;;;4370439;32;20113;-38
2021/11/05 07:39:07;;;;;;;;;;;7.00;36.00;;;;;;4358609;32;20004;-38
2021/11/05 07:41:34;;;;;;;;;;;7.00;36.20;;;;;;4371200;32;19976;-39
2021/11/05 07:44:00;;;;;;;;;;;7.00;36.40;;;;;;4370674;32;19970;-39
2021/11/05 07:46:29;;;;;;;;;;;6.90;36.80;;;;;;4359559;32;20421;-38
2021/11/05 07:48:55;;;;;;;;;;;6.90;36.90;;;;;;4355502;32;20063;-38
2021/11/05 07:51:22;;;;;;;;;;;6.90;37.20;;;;;;4355676;32;20457;-38
2021/11/05 07:53:48;;;;;;;;;;;7.00;37.50;;;;;;4356114;32;19974;-38
2021/11/05 07:56:15;;;;;;;;;;;7.00;37.50;;;;;;4355624;32;20005;-39
2021/11/05 07:58:41;;;;;;;;;;;7.00;37.50;;;;;;4356034;32;20050;-39
2021/11/05 08:01:07;;;;;;;;;;;7.00;37.50;;;;;;4345364;32;20045;-38
2021/11/05 08:03:34;;;;;;;;;;;7.00;37.40;;;;;;4359039;32;20000;-40
2021/11/05 08:06:00;;;;;;;;;;;7.00;38.20;;;;;;4358678;32;19986;-40
2021/11/05 08:08:27;;;;;;;;;;;7.00;37.80;;;;;;4372990;32;19993;-40
2021/11/05 08:10:53;;;;;;;;;;;7.10;38.10;;;;;;4375861;32;20421;-39
2021/11/05 08:13:20;;;;;;;;;;;7.10;37.80;;;;;;4375480;32;19970;-39
2021/11/05 08:15:46;;;;;;;;;;;7.10;38.00;;;;;;4375947;32;20000;-40
2021/11/05 08:18:12;;;;;;;;;;;7.10;38.00;;;;;;4375882;32;19974;-38
2021/11/05 08:20:38;;;;;;;;;;;7.20;37.90;;;;;;4375797;32;20038;-38
2021/11/05 08:23:05;;;;;;;;;;;7.30;37.70;;;;;;4375654;32;20418;-38
2021/11/05 08:25:31;;;;;;;;;;;7.30;37.60;;;;;;4376137;32;20026;-38
2021/11/05 08:27:58;;;;;;;;;;;7.40;37.50;;;;;;4376301;32;19962;-39
2021/11/05 08:30:24;;;;;;;;;;;7.50;37.30;;;;;;4375621;32;19976;-39
2021/11/05 08:32:51;;;;;;;;;;;7.50;37.30;;;;;;4375813;32;19966;-41
2021/11/05 08:35:19;;;;;;;;;;;7.60;36.80;;;;;;4375849;32;19974;-39
2021/11/05 08:37:45;;;;;;;;;;;7.60;36.60;;;;;;4375687;32;19962;-39
2021/11/05 08:40:11;;;;;;;;;;;7.70;36.70;;;;;;4375270;32;19970;-39
2021/11/05 08:42:38;;;;;;;;;;;7.80;36.90;;;;;;4375456;32;19962;-39
2021/11/05 08:45:07;;;;;;;;;;;7.80;36.60;;;;;;4375439;32;19982;-39
2021/11/05 08:47:36;;;;;;;;;;;7.90;36.60;;;;;;4375993;32;20041;-40
2021/11/05 08:50:04;;;;;;;;;;;8.00;36.70;;;;;;4375242;32;20005;-39
2021/11/05 08:52:31;;;;;;;;;;;8.10;36.30;;;;;;4361480;32;19969;-38
2021/11/05 08:54:58;;;;;;;;;;;8.10;36.00;;;;;;4375768;32;19977;-38
2021/11/05 08:57:24;;;;;;;;;;;8.20;36.10;;;;;;4375436;32;20001;-38
2021/11/05 08:59:51;;;;;;;;;;;8.30;36.00;;;;;;4375397;32;19962;-39
2021/11/05 09:02:17;;;;;;;;;;;8.30;36.00;;;;;;4374991;32;19989;-39
2021/11/05 09:04:43;;;;;;;;;;;8.30;36.20;;;;;;4375540;32;20038;-39
2021/11/05 09:07:10;;;;;;;;;;;8.40;36.10;;;;;;4374873;32;20077;-38
2021/11/05 09:09:40;;;;;;;;;;;8.50;36.00;;;;;;4374887;32;19966;-38
2021/11/05 09:12:07;;;;;;;;;;;8.50;35.80;;;;;;4374521;32;19992;-39
2021/11/05 09:14:33;;;;;;;;;;;8.50;36.00;;;;;;4374973;32;19977;-39
2021/11/05 09:16:59;;;;;;;;;;;8.50;36.20;;;;;;4374965;32;19966;-37
2021/11/05 09:19:25;;;;;;;;;;;8.50;36.40;;;;;;4375350;32;19966;-39
2021/11/05 09:21:52;;;;;;;;;;;8.50;36.50;;;;;;4374921;32;19982;-39
2021/11/05 09:24:18;;;;;;;;;;;8.60;36.70;;;;;;4374658;32;20030;-39
2021/11/05 09:26:44;;;;;;;;;;;8.60;36.90;;;;;;4375040;32;19996;-41
2021/11/05 09:29:13;;;;;;;;;;;8.60;36.90;;;;;;4375224;32;20402;-39
2021/11/05 09:31:40;;;;;;;;;;;8.60;37.00;;;;;;4330247;33;19979;-38
2021/11/05 09:34:06;;;;;;;;;;;8.60;37.10;;;;;;4330133;33;19970;-39
2021/11/05 09:36:32;;;;;;;;;;;8.60;37.20;;;;;;4342355;33;19982;-38
2021/11/05 09:39:01;;;;;;;;;;;8.70;37.30;;;;;;4342717;33;20471;-39
2021/11/05 09:41:27;;;;;;;;;;;8.70;37.00;;;;;;4342640;33;19967;-38
2021/11/05 09:43:53;;;;;;;;;;;8.70;37.10;;;;;;4341725;33;20498;-39
2021/11/05 09:46:20;;;;;;;;;;;8.70;36.90;;;;;;4339999;32;20402;-39
2021/11/05 09:48:46;;;;;;;;;;;8.70;36.80;;;;;;4357077;32;19978;-39
2021/11/05 09:51:12;;;;;;;;;;;8.70;36.70;;;;;;4356679;32;20666;-39
2021/11/05 09:53:39;;;;;;;;;;;8.60;36.60;;;;;;4356646;32;20052;-40
2021/11/05 09:56:07;;;;;;;;;;;8.60;36.50;;;;;;4356995;32;19974;-38
2021/11/05 09:58:33;;;;;;;;;;;8.50;36.30;;;;;;4357029;32;20477;-38
2021/11/05 10:00:59;;;;;;;;;;;8.50;36.40;;;;;;4344633;32;20407;-38
2021/11/05 10:03:27;;;;;;;;;;;8.50;36.30;;;;;;4356697;32;19982;-39
2021/11/05 10:05:54;;;;;;;;;;;8.40;36.20;;;;;;4357055;32;19978;-38
2021/11/05 10:08:28;;;;;;;;;;;8.30;36.40;;;;;;4362661;32;19981;-39
2021/11/05 10:10:54;;;;;;;;;;;8.20;36.90;;;;;;4389041;32;19996;-39
2021/11/05 10:13:24;;;;;;;;;;;8.20;37.30;;;;;;4375281;32;19974;-38
2021/11/05 10:15:53;;;;;;;;;;;8.20;37.30;;;;;;4375200;32;19969;-40
2021/11/05 10:18:30;;;;;;;;;;;8.20;37.00;;;;;;4388759;32;19966;-39
2021/11/05 10:21:25;;;;;;;;;;;8.10;36.90;;;;;;4388899;32;20362;-39
2021/11/05 10:23:51;;;;;;;;;;;8.10;37.00;;;;;;4326350;33;20030;-39
2021/11/05 10:26:28;;;;;;;;;;;8.10;36.90;;;;;;4327069;33;19974;-39
2021/11/05 10:28:55;;;;;;;;;;;8.10;36.90;;;;;;4314932;33;19994;-39
2021/11/05 10:31:24;;;;;;;;;;;8.10;36.80;;;;;;4326797;33;20540;-38
2021/11/05 10:33:51;;;;;;;;;;;8.10;36.90;;;;;;4326735;33;19995;-39
2021/11/05 10:36:19;;;;;;;;;;;7.90;37.40;;;;;;4327282;33;20055;-39
2021/11/05 10:38:53;;;;;;;;;;;7.90;38.60;;;;;;4326591;33;20451;-38
2021/11/05 10:41:21;;;;;;;;;;;7.90;39.40;;;;;;4327066;33;20175;-40
2021/11/05 10:43:49;;;;;;;;;;;7.80;40.10;;;;;;4327153;33;19973;-39
2021/11/05 10:46:32;;;;;;;;;;;7.80;40.10;;;;;;4316580;33;19995;-39
2021/11/05 10:49:23;;;;;;;;;;;7.80;40.20;;;;;;4311884;33;19971;-39
2021/11/05 10:51:50;;;;;;;;;;;7.80;39.90;;;;;;4312056;33;19994;-38
2021/11/05 10:54:16;;;;;;;;;;;7.90;39.60;;;;;;4311348;33;19990;-39
2021/11/05 10:56:44;;;;;;;;;;;7.90;39.10;;;;;;4312054;33;19975;-38
2021/11/05 10:59:10;;;;;;;;;;;7.90;39.00;;;;;;4315276;32;20121;-39
2021/11/05 11:01:38;;;;;;;;;;;8.00;38.80;;;;;;4373294;32;20485;-38
2021/11/05 11:04:06;;;;;;;;;;;8.00;38.40;;;;;;4373934;32;19976;-39
2021/11/05 11:06:46;;;;;;;;;;;8.10;38.10;;;;;;4373546;32;19962;-38
2021/11/05 11:09:17;;;;;;;;;;;8.10;37.90;;;;;;4359707;32;20065;-38
2021/11/05 11:11:44;;;;;;;;;;;8.10;38.00;;;;;;4359672;32;19977;-39
2021/11/05 11:14:17;;;;;;;;;;;8.20;37.80;;;;;;4373346;32;19974;-37
2021/11/05 11:16:53;;;;;;;;;;;8.20;37.50;;;;;;4373287;32;19982;-40
2021/11/05 11:19:23;;;;;;;;;;;8.20;37.40;;;;;;4359646;32;19970;-38
2021/11/05 11:21:58;;;;;;;;;;;8.20;37.30;;;;;;4359375;32;20000;-39
2021/11/05 11:24:26;;;;;;;;;;;8.20;37.50;;;;;;4373226;32;19966;-38
2021/11/05 11:26:52;;;;;;;;;;;8.20;37.20;;;;;;4373163;32;19974;-39
2021/11/05 11:29:21;;;;;;;;;;;8.20;37.10;;;;;;4372638;32;20051;-39
2021/11/05 11:31:48;;;;;;;;;;;8.20;37.10;;;;;;4373256;32;19974;-39
2021/11/05 11:34:14;;;;;;;;;;;8.20;36.90;;;;;;4372724;32;19962;-38
2021/11/05 11:36:42;;;;;;;;;;;8.30;36.80;;;;;;4372653;32;20468;-38
2021/11/05 11:39:11;;;;;;;;;;;8.30;36.80;;;;;;4373160;32;19965;-38
2021/11/05 11:41:37;;;;;;;;;;;8.30;37.00;;;;;;4373380;32;20042;-39
2021/11/05 11:44:04;;;;;;;;;;;8.30;37.10;;;;;;4359456;32;20042;-39
2021/11/05 11:46:59;;;;;;;;;;;8.30;37.00;;;;;;4358875;32;20085;-38
2021/11/05 11:49:37;;;;;;;;;;;8.30;37.00;;;;;;4372818;32;20559;-39
2021/11/05 11:52:05;;;;;;;;;;;8.30;37.50;;;;;;4373599;32;20070;-38
2021/11/05 11:54:33;;;;;;;;;;;8.30;37.30;;;;;;4373051;32;20362;-38
2021/11/05 11:57:33;;;;;;;;;;;8.30;36.50;;;;;;4373280;32;20013;-38
2021/11/05 12:00:11;;;;;;;;;;;8.30;36.70;;;;;;4359304;32;19958;-39
2021/11/05 12:03:15;;;;;;;;;;;8.30;36.90;;;;;;4373277;32;19958;-40
2021/11/05 12:05:47;;;;;;;;;;;8.30;36.60;;;;;;4369567;32;19962;-39
2021/11/05 12:08:17;;;;;;;;;;;8.30;37.00;;;;;;4372864;32;20459;-39
2021/11/05 12:11:06;;;;;;;;;;;8.30;37.10;;;;;;4371331;32;19993;-40
2021/11/05 12:13:42;;;;;;;;;;;8.30;36.90;;;;;;4366053;32;20152;-39
2021/11/05 12:16:27;;;;;;;;;;;8.30;37.20;;;;;;4373170;32;19966;-39
2021/11/05 12:21:34;;;;;;;;;;;8.20;37.70;;;;;;4372773;32;19970;-38
2021/11/05 12:24:13;;;;;;;;;;;8.10;37.90;;;;;;4359020;32;19970;-38
2021/11/05 12:26:47;;;;;;;;;;;8.10;38.10;;;;;;4372763;32;19966;-37
2021/11/05 12:29:46;;;;;;;;;;;8.10;37.80;;;;;;4372575;32;19970;-38
2021/11/05 12:32:17;;;;;;;;;;;8.10;37.90;;;;;;4310876;33;19983;-39
2021/11/05 12:34:57;;;;;;;;;;;8.10;38.20;;;;;;4311022;33;20049;-39
2021/11/05 12:37:29;;;;;;;;;;;8.10;38.20;;;;;;4311340;33;19991;-39
2021/11/05 12:39:55;;;;;;;;;;;8.10;38.40;;;;;;4311362;33;19972;-40
2021/11/05 12:42:22;;;;;;;;;;;8.10;38.50;;;;;;4310576;33;20013;-38
2021/11/05 12:45:05;;;;;;;;;;;8.20;38.60;;;;;;4299019;33;20090;-38
2021/11/05 12:47:47;;;;;;;;;;;8.20;38.60;;;;;;4313378;33;20460;-39
2021/11/05 12:50:27;;;;;;;;;;;8.20;38.70;;;;;;4313231;33;20380;-40
2021/11/05 12:52:58;;;;;;;;;;;8.20;38.60;;;;;;4313698;33;20045;-40
2021/11/05 12:55:30;;;;;;;;;;;8.20;38.70;;;;;;4313360;33;20205;-39
2021/11/05 12:57:57;;;;;;;;;;;8.20;38.70;;;;;;4313825;33;20047;-40
2021/11/05 13:00:28;;;;;;;;;;;8.20;38.50;;;;;;4312980;33;19991;-39
2021/11/05 13:02:56;;;;;;;;;;;8.20;38.60;;;;;;4313641;33;20011;-39
2021/11/05 13:05:22;;;;;;;;;;;8.20;38.60;;;;;;4313124;33;19960;-39
2021/11/05 13:07:56;;;;;;;;;;;8.20;38.20;;;;;;4344067;32;19973;-39
2021/11/05 13:10:26;;;;;;;;;;;8.20;38.50;;;;;;4375129;32;20049;-40
2021/11/05 13:12:53;;;;;;;;;;;8.20;38.50;;;;;;4361046;32;19974;-39
2021/11/05 13:15:20;;;;;;;;;;;8.20;38.30;;;;;;4374961;32;20366;-40
2021/11/05 13:17:46;;;;;;;;;;;8.20;38.30;;;;;;4375252;32;19978;-39
2021/11/05 13:20:19;;;;;;;;;;;8.20;38.30;;;;;;4375246;32;19969;-39
2021/11/05 13:22:46;;;;;;;;;;;8.20;38.30;;;;;;4361497;32;19969;-38
2021/11/05 13:25:32;;;;;;;;;;;8.20;38.40;;;;;;4374910;32;19958;-38
2021/11/05 13:28:15;;;;;;;;;;;8.10;38.40;;;;;;4374824;32;19971;-40
2021/11/05 13:30:57;;;;;;;;;;;8.10;38.60;;;;;;4374914;32;20003;-39
2021/11/05 13:33:24;;;;;;;;;;;8.10;38.90;;;;;;4374632;32;20029;-38
2021/11/05 13:36:02;;;;;;;;;;;8.10;38.90;;;;;;4374613;32;19968;-39
2021/11/05 13:38:30;;;;;;;;;;;8.10;39.00;;;;;;4374353;32;20378;-39
2021/11/05 13:41:04;;;;;;;;;;;8.10;39.00;;;;;;4374478;32;20141;-39
2021/11/05 13:43:32;;;;;;;;;;;8.10;39.00;;;;;;4360210;32;20402;-37
2021/11/05 13:46:03;;;;;;;;;;;8.10;39.20;;;;;;4366554;32;19965;-38
2021/11/05 13:48:32;;;;;;;;;;;8.10;39.20;;;;;;4374744;32;19969;-40
2021/11/05 13:51:09;;;;;;;;;;;8.10;39.40;;;;;;4374378;32;20058;-37
2021/11/05 13:53:44;;;;;;;;;;;8.10;39.60;;;;;;4374352;32;20354;-40
2021/11/05 13:56:12;;;;;;;;;;;8.10;39.50;;;;;;4372886;32;20411;-40
2021/11/05 13:58:40;;;;;;;;;;;8.20;39.40;;;;;;4373493;32;20040;-38
2021/11/05 14:01:06;;;;;;;;;;;8.20;39.60;;;;;;4372594;32;19990;-40
2021/11/05 14:03:32;;;;;;;;;;;8.20;39.50;;;;;;4360623;32;19975;-40
2021/11/05 14:06:11;;;;;;;;;;;8.20;39.20;;;;;;4372938;32;19962;-39
2021/11/05 14:08:58;;;;;;;;;;;8.20;39.20;;;;;;4374183;32;20045;-38
2021/11/05 14:11:35;;;;;;;;;;;8.30;39.30;;;;;;4374542;32;20054;-39
2021/11/05 14:14:06;;;;;;;;;;;8.30;39.30;;;;;;4374303;32;19969;-39
2021/11/05 14:16:54;;;;;;;;;;;8.30;39.40;;;;;;4373842;32;20001;-39
2021/11/05 14:19:25;;;;;;;;;;;8.30;39.20;;;;;;4373805;32;19966;-39
2021/11/05 14:21:58;;;;;;;;;;;8.30;39.10;;;;;;4373525;32;19989;-38
2021/11/05 14:24:25;;;;;;;;;;;8.30;39.30;;;;;;4385765;32;20064;-39
2021/11/05 14:27:23;;;;;;;;;;;8.40;39.30;;;;;;4388840;32;19989;-40
2021/11/05 14:29:51;;;;;;;;;;;8.40;39.10;;;;;;4389063;32;20077;-43
2021/11/05 14:32:38;;;;;;;;;;;8.40;39.10;;;;;;4388773;32;19976;-37
2021/11/05 14:35:06;;;;;;;;;;;8.50;39.10;;;;;;4388682;32;19998;-38
2021/11/05 14:37:44;;;;;;;;;;;8.50;39.10;;;;;;4389032;32;20000;-39
2021/11/05 14:40:23;;;;;;;;;;;8.50;39.30;;;;;;4389126;32;19966;-38
2021/11/05 14:43:14;;;;;;;;;;;8.60;39.10;;;;;;4389312;32;19994;-39